sensor_id;sensor_type;location;lat;lon;timestamp;P1;durP1;ratioP1;P2;durP2;ratioP2
33858;SDS011;20156;47.486;12.074;2022-11-15T00:01:34;12.07;;;8.80;;
33858;SDS011;20156;47.486;12.074;2022-11-15T00:04:02;14.03;;;10.77;;
33858;SDS011;20156;47.486;12.074;2022-11-15T00:06:29;12.97;;;8.87;;
33858;SDS011;20156;47.486;12.074;2022-11-15T00:08:54;17.63;;;12.27;;
33858;SDS011;20156;47.486;12.074;2022-11-15T00:11:22;18.33;;;11.40;;
33858;SDS011;20156;47.486;12.074;2022-11-15T00:13:48;12.87;;;10.33;;
33858;SDS011;20156;47.486;12.074;2022-11-15T00:16:13;15.13;;;10.67;;
33858;SDS011;20156;47.486;12.074;2022-11-15T00:18:39;13.60;;;10.77;;
33858;SDS011;20156;47.486;12.074;2022-11-15T00:21:06;11.97;;;9.13;;
33858;SDS011;20156;47.486;12.074;2022-11-15T00:23:34;15.13;;;9.90;;
33858;SDS011;20156;47.486;12.074;2022-11-15T00:26:00;13.60;;;9.53;;
33858;SDS011;20156;47.486;12.074;2022-11-15T00:28:26;13.33;;;9.23;;
33858;SDS011;20156;47.486;12.074;2022-11-15T00:30:51;8.90;;;7.07;;
33858;SDS011;20156;47.486;12.074;2022-11-15T00:33:17;19.33;;;11.80;;
33858;SDS011;20156;47.486;12.074;2022-11-15T00:35:43;14.17;;;10.47;;
33858;SDS011;20156;47.486;12.074;2022-11-15T00:38:09;12.97;;;9.10;;
33858;SDS011;20156;47.486;12.074;2022-11-15T00:40:34;14.27;;;10.73;;
33858;SDS011;20156;47.486;12.074;2022-11-15T00:43:00;14.60;;;10.73;;
33858;SDS011;20156;47.486;12.074;2022-11-15T00:45:25;19.93;;;11.23;;
33858;SDS011;20156;47.486;12.074;2022-11-15T00:47:51;17.20;;;12.00;;
33858;SDS011;20156;47.486;12.074;2022-11-15T00:50:17;16.47;;;11.20;;
33858;SDS011;20156;47.486;12.074;2022-11-15T00:52:43;13.30;;;10.20;;
33858;SDS011;20156;47.486;12.074;2022-11-15T00:55:12;16.27;;;11.07;;
33858;SDS011;20156;47.486;12.074;2022-11-15T00:57:40;15.63;;;11.27;;
33858;SDS011;20156;47.486;12.074;2022-11-15T01:00:05;14.27;;;10.37;;
33858;SDS011;20156;47.486;12.074;2022-11-15T01:02:32;16.03;;;11.67;;
33858;SDS011;20156;47.486;12.074;2022-11-15T01:04:57;14.93;;;10.03;;
33858;SDS011;20156;47.486;12.074;2022-11-15T01:07:23;12.33;;;8.73;;
33858;SDS011;20156;47.486;12.074;2022-11-15T01:09:48;12.43;;;8.27;;
33858;SDS011;20156;47.486;12.074;2022-11-15T01:12:13;11.63;;;7.47;;
33858;SDS011;20156;47.486;12.074;2022-11-15T01:14:39;10.10;;;7.30;;
33858;SDS011;20156;47.486;12.074;2022-11-15T01:17:04;11.77;;;8.70;;
33858;SDS011;20156;47.486;12.074;2022-11-15T01:19:30;11.63;;;9.10;;
33858;SDS011;20156;47.486;12.074;2022-11-15T01:21:55;12.20;;;8.30;;
33858;SDS011;20156;47.486;12.074;2022-11-15T01:24:20;12.10;;;8.07;;
33858;SDS011;20156;47.486;12.074;2022-11-15T01:26:46;12.93;;;8.77;;
33858;SDS011;20156;47.486;12.074;2022-11-15T01:29:11;13.43;;;9.97;;
33858;SDS011;20156;47.486;12.074;2022-11-15T01:31:37;13.63;;;9.27;;
33858;SDS011;20156;47.486;12.074;2022-11-15T01:34:03;9.77;;;8.00;;
33858;SDS011;20156;47.486;12.074;2022-11-15T01:36:28;9.43;;;7.67;;
33858;SDS011;20156;47.486;12.074;2022-11-15T01:38:54;12.13;;;8.17;;
33858;SDS011;20156;47.486;12.074;2022-11-15T01:41:22;13.77;;;9.13;;
33858;SDS011;20156;47.486;12.074;2022-11-15T01:43:51;14.57;;;8.63;;
33858;SDS011;20156;47.486;12.074;2022-11-15T01:46:23;12.73;;;9.37;;
33858;SDS011;20156;47.486;12.074;2022-11-15T01:48:52;13.70;;;8.93;;
33858;SDS011;20156;47.486;12.074;2022-11-15T01:51:20;13.03;;;9.50;;
33858;SDS011;20156;47.486;12.074;2022-11-15T01:53:49;13.70;;;8.83;;
33858;SDS011;20156;47.486;12.074;2022-11-15T01:56:19;16.60;;;10.63;;
33858;SDS011;20156;47.486;12.074;2022-11-15T01:58:48;16.33;;;11.60;;
33858;SDS011;20156;47.486;12.074;2022-11-15T02:01:16;12.87;;;10.07;;
33858;SDS011;20156;47.486;12.074;2022-11-15T02:03:44;15.43;;;11.27;;
33858;SDS011;20156;47.486;12.074;2022-11-15T02:06:16;13.37;;;9.97;;
33858;SDS011;20156;47.486;12.074;2022-11-15T02:08:42;14.57;;;10.00;;
33858;SDS011;20156;47.486;12.074;2022-11-15T02:11:09;14.37;;;10.07;;
33858;SDS011;20156;47.486;12.074;2022-11-15T02:13:35;12.53;;;9.10;;
33858;SDS011;20156;47.486;12.074;2022-11-15T02:18:34;14.10;;;9.83;;
33858;SDS011;20156;47.486;12.074;2022-11-15T02:21:22;10.70;;;8.87;;
33858;SDS011;20156;47.486;12.074;2022-11-15T02:26:44;10.67;;;8.53;;
33858;SDS011;20156;47.486;12.074;2022-11-15T02:32:55;12.40;;;9.87;;
33858;SDS011;20156;47.486;12.074;2022-11-15T02:35:35;13.10;;;9.13;;
33858;SDS011;20156;47.486;12.074;2022-11-15T02:41:10;11.70;;;8.50;;
33858;SDS011;20156;47.486;12.074;2022-11-15T02:43:47;9.63;;;7.63;;
33858;SDS011;20156;47.486;12.074;2022-11-15T02:49:16;14.03;;;10.33;;
33858;SDS011;20156;47.486;12.074;2022-11-15T02:51:43;11.70;;;8.47;;
33858;SDS011;20156;47.486;12.074;2022-11-15T02:54:15;10.80;;;8.60;;
33858;SDS011;20156;47.486;12.074;2022-11-15T02:56:46;11.53;;;9.23;;
33858;SDS011;20156;47.486;12.074;2022-11-15T03:02:02;13.50;;;8.67;;
33858;SDS011;20156;47.486;12.074;2022-11-15T03:04:44;11.47;;;7.80;;
33858;SDS011;20156;47.486;12.074;2022-11-15T03:16:01;11.40;;;8.93;;
33858;SDS011;20156;47.486;12.074;2022-11-15T03:18:32;9.40;;;7.50;;
33858;SDS011;20156;47.486;12.074;2022-11-15T03:21:01;9.70;;;7.50;;
33858;SDS011;20156;47.486;12.074;2022-11-15T03:23:30;9.30;;;7.43;;
33858;SDS011;20156;47.486;12.074;2022-11-15T03:25:58;9.43;;;7.27;;
33858;SDS011;20156;47.486;12.074;2022-11-15T03:28:49;8.77;;;7.87;;
33858;SDS011;20156;47.486;12.074;2022-11-15T03:31:11;10.43;;;8.20;;
33858;SDS011;20156;47.486;12.074;2022-11-15T03:33:59;11.03;;;8.73;;
33858;SDS011;20156;47.486;12.074;2022-11-15T03:36:28;8.50;;;6.90;;
33858;SDS011;20156;47.486;12.074;2022-11-15T03:38:58;9.87;;;7.40;;
33858;SDS011;20156;47.486;12.074;2022-11-15T03:41:35;8.13;;;6.87;;
33858;SDS011;20156;47.486;12.074;2022-11-15T03:47:01;9.53;;;7.30;;
33858;SDS011;20156;47.486;12.074;2022-11-15T03:49:34;8.93;;;6.97;;
33858;SDS011;20156;47.486;12.074;2022-11-15T03:52:03;9.70;;;7.10;;
33858;SDS011;20156;47.486;12.074;2022-11-15T03:54:29;10.93;;;7.80;;
33858;SDS011;20156;47.486;12.074;2022-11-15T03:56:55;8.37;;;6.40;;
33858;SDS011;20156;47.486;12.074;2022-11-15T03:59:21;11.90;;;8.83;;
33858;SDS011;20156;47.486;12.074;2022-11-15T04:01:47;9.50;;;7.13;;
33858;SDS011;20156;47.486;12.074;2022-11-15T04:04:12;10.33;;;8.00;;
33858;SDS011;20156;47.486;12.074;2022-11-15T04:06:38;11.97;;;9.77;;
33858;SDS011;20156;47.486;12.074;2022-11-15T04:09:03;9.27;;;8.17;;
33858;SDS011;20156;47.486;12.074;2022-11-15T04:11:29;8.77;;;6.90;;
33858;SDS011;20156;47.486;12.074;2022-11-15T04:13:54;8.93;;;7.03;;
33858;SDS011;20156;47.486;12.074;2022-11-15T04:16:20;6.73;;;5.87;;
33858;SDS011;20156;47.486;12.074;2022-11-15T04:18:45;5.93;;;4.83;;
33858;SDS011;20156;47.486;12.074;2022-11-15T04:21:31;5.57;;;4.67;;
33858;SDS011;20156;47.486;12.074;2022-11-15T04:24:15;5.03;;;4.53;;
33858;SDS011;20156;47.486;12.074;2022-11-15T04:26:40;7.70;;;6.13;;
33858;SDS011;20156;47.486;12.074;2022-11-15T04:29:06;11.13;;;7.97;;
33858;SDS011;20156;47.486;12.074;2022-11-15T04:31:50;9.33;;;6.53;;
33858;SDS011;20156;47.486;12.074;2022-11-15T04:34:15;8.93;;;7.30;;
33858;SDS011;20156;47.486;12.074;2022-11-15T04:36:41;7.80;;;6.13;;
33858;SDS011;20156;47.486;12.074;2022-11-15T04:39:25;9.70;;;6.40;;
33858;SDS011;20156;47.486;12.074;2022-11-15T04:41:50;8.47;;;6.23;;
33858;SDS011;20156;47.486;12.074;2022-11-15T04:44:15;8.57;;;7.30;;
33858;SDS011;20156;47.486;12.074;2022-11-15T04:46:41;8.00;;;6.90;;
33858;SDS011;20156;47.486;12.074;2022-11-15T04:49:06;8.53;;;6.73;;
33858;SDS011;20156;47.486;12.074;2022-11-15T04:51:32;7.20;;;6.47;;
33858;SDS011;20156;47.486;12.074;2022-11-15T04:53:57;8.47;;;6.30;;
33858;SDS011;20156;47.486;12.074;2022-11-15T04:56:23;6.40;;;5.77;;
33858;SDS011;20156;47.486;12.074;2022-11-15T04:58:48;8.13;;;5.97;;
33858;SDS011;20156;47.486;12.074;2022-11-15T05:01:15;7.27;;;6.23;;
33858;SDS011;20156;47.486;12.074;2022-11-15T05:03:41;7.70;;;6.40;;
33858;SDS011;20156;47.486;12.074;2022-11-15T05:06:25;9.63;;;7.27;;
33858;SDS011;20156;47.486;12.074;2022-11-15T05:08:51;10.17;;;7.13;;
33858;SDS011;20156;47.486;12.074;2022-11-15T05:11:16;10.80;;;6.77;;
33858;SDS011;20156;47.486;12.074;2022-11-15T05:13:42;7.27;;;6.30;;
33858;SDS011;20156;47.486;12.074;2022-11-15T05:16:07;9.87;;;6.30;;
33858;SDS011;20156;47.486;12.074;2022-11-15T05:18:33;8.53;;;6.80;;
33858;SDS011;20156;47.486;12.074;2022-11-15T05:21:05;7.87;;;6.37;;
33858;SDS011;20156;47.486;12.074;2022-11-15T05:23:32;8.67;;;6.47;;
33858;SDS011;20156;47.486;12.074;2022-11-15T05:26:01;10.10;;;7.30;;
33858;SDS011;20156;47.486;12.074;2022-11-15T05:28:28;8.33;;;6.93;;
33858;SDS011;20156;47.486;12.074;2022-11-15T05:30:53;8.37;;;6.37;;
33858;SDS011;20156;47.486;12.074;2022-11-15T05:33:24;7.60;;;6.13;;
33858;SDS011;20156;47.486;12.074;2022-11-15T05:35:50;7.67;;;6.30;;
33858;SDS011;20156;47.486;12.074;2022-11-15T05:38:23;7.53;;;6.30;;
33858;SDS011;20156;47.486;12.074;2022-11-15T05:40:48;9.20;;;5.77;;
33858;SDS011;20156;47.486;12.074;2022-11-15T05:43:14;7.30;;;6.43;;
33858;SDS011;20156;47.486;12.074;2022-11-15T05:45:39;6.57;;;5.77;;
33858;SDS011;20156;47.486;12.074;2022-11-15T05:48:05;7.20;;;5.90;;
33858;SDS011;20156;47.486;12.074;2022-11-15T05:50:33;7.17;;;6.10;;
33858;SDS011;20156;47.486;12.074;2022-11-15T05:53:01;7.93;;;6.10;;
33858;SDS011;20156;47.486;12.074;2022-11-15T05:55:27;9.97;;;6.70;;
33858;SDS011;20156;47.486;12.074;2022-11-15T05:57:52;7.03;;;6.33;;
33858;SDS011;20156;47.486;12.074;2022-11-15T06:00:18;10.73;;;7.07;;
33858;SDS011;20156;47.486;12.074;2022-11-15T06:02:43;9.87;;;8.17;;
33858;SDS011;20156;47.486;12.074;2022-11-15T06:05:09;14.43;;;9.97;;
33858;SDS011;20156;47.486;12.074;2022-11-15T06:07:34;10.43;;;8.30;;
33858;SDS011;20156;47.486;12.074;2022-11-15T06:10:00;12.57;;;9.60;;
33858;SDS011;20156;47.486;12.074;2022-11-15T06:12:25;13.70;;;9.73;;
33858;SDS011;20156;47.486;12.074;2022-11-15T06:14:50;13.80;;;9.37;;
33858;SDS011;20156;47.486;12.074;2022-11-15T06:17:17;10.97;;;9.03;;
33858;SDS011;20156;47.486;12.074;2022-11-15T06:19:43;12.30;;;9.40;;
33858;SDS011;20156;47.486;12.074;2022-11-15T06:22:08;17.67;;;12.83;;
33858;SDS011;20156;47.486;12.074;2022-11-15T06:24:34;16.53;;;13.50;;
33858;SDS011;20156;47.486;12.074;2022-11-15T06:26:59;12.00;;;9.30;;
33858;SDS011;20156;47.486;12.074;2022-11-15T06:29:25;13.03;;;9.37;;
33858;SDS011;20156;47.486;12.074;2022-11-15T06:31:50;12.43;;;9.33;;
33858;SDS011;20156;47.486;12.074;2022-11-15T06:34:16;11.13;;;8.57;;
33858;SDS011;20156;47.486;12.074;2022-11-15T06:36:41;13.17;;;9.07;;
33858;SDS011;20156;47.486;12.074;2022-11-15T06:39:06;11.03;;;8.67;;
33858;SDS011;20156;47.486;12.074;2022-11-15T06:41:35;13.70;;;10.27;;
33858;SDS011;20156;47.486;12.074;2022-11-15T06:44:01;26.60;;;21.23;;
33858;SDS011;20156;47.486;12.074;2022-11-15T06:46:27;21.87;;;16.87;;
33858;SDS011;20156;47.486;12.074;2022-11-15T06:48:53;19.77;;;16.90;;
33858;SDS011;20156;47.486;12.074;2022-11-15T06:51:18;18.60;;;13.53;;
33858;SDS011;20156;47.486;12.074;2022-11-15T06:53:44;20.63;;;16.70;;
33858;SDS011;20156;47.486;12.074;2022-11-15T06:56:10;16.33;;;13.40;;
33858;SDS011;20156;47.486;12.074;2022-11-15T06:58:35;16.20;;;13.17;;
33858;SDS011;20156;47.486;12.074;2022-11-15T07:01:02;18.23;;;14.33;;
33858;SDS011;20156;47.486;12.074;2022-11-15T07:03:37;15.60;;;12.40;;
33858;SDS011;20156;47.486;12.074;2022-11-15T07:06:03;15.73;;;12.80;;
33858;SDS011;20156;47.486;12.074;2022-11-15T07:08:29;17.77;;;13.10;;
33858;SDS011;20156;47.486;12.074;2022-11-15T07:10:57;18.63;;;12.40;;
33858;SDS011;20156;47.486;12.074;2022-11-15T07:13:26;25.73;;;14.93;;
33858;SDS011;20156;47.486;12.074;2022-11-15T07:15:52;47.40;;;26.50;;
33858;SDS011;20156;47.486;12.074;2022-11-15T07:18:18;25.43;;;16.30;;
33858;SDS011;20156;47.486;12.074;2022-11-15T07:20:43;26.13;;;16.87;;
33858;SDS011;20156;47.486;12.074;2022-11-15T07:23:08;35.77;;;20.40;;
33858;SDS011;20156;47.486;12.074;2022-11-15T07:25:34;51.03;;;30.27;;
33858;SDS011;20156;47.486;12.074;2022-11-15T07:27:59;27.97;;;18.00;;
33858;SDS011;20156;47.486;12.074;2022-11-15T07:30:25;20.03;;;14.40;;
33858;SDS011;20156;47.486;12.074;2022-11-15T07:32:55;20.83;;;15.30;;
33858;SDS011;20156;47.486;12.074;2022-11-15T07:35:21;20.30;;;14.63;;
33858;SDS011;20156;47.486;12.074;2022-11-15T07:37:57;15.10;;;11.57;;
33858;SDS011;20156;47.486;12.074;2022-11-15T07:40:25;13.53;;;10.60;;
33858;SDS011;20156;47.486;12.074;2022-11-15T07:42:51;13.57;;;10.00;;
33858;SDS011;20156;47.486;12.074;2022-11-15T07:45:21;12.30;;;9.07;;
33858;SDS011;20156;47.486;12.074;2022-11-15T07:47:48;11.83;;;9.83;;
33858;SDS011;20156;47.486;12.074;2022-11-15T07:50:15;12.10;;;9.83;;
33858;SDS011;20156;47.486;12.074;2022-11-15T07:52:41;13.30;;;10.10;;
33858;SDS011;20156;47.486;12.074;2022-11-15T07:55:06;27.97;;;22.87;;
33858;SDS011;20156;47.486;12.074;2022-11-15T07:57:32;19.17;;;15.03;;
33858;SDS011;20156;47.486;12.074;2022-11-15T07:59:58;29.30;;;23.40;;
33858;SDS011;20156;47.486;12.074;2022-11-15T08:02:23;20.47;;;16.80;;
33858;SDS011;20156;47.486;12.074;2022-11-15T08:04:48;21.07;;;17.30;;
33858;SDS011;20156;47.486;12.074;2022-11-15T08:07:14;20.87;;;17.23;;
33858;SDS011;20156;47.486;12.074;2022-11-15T08:09:39;14.03;;;12.43;;
33858;SDS011;20156;47.486;12.074;2022-11-15T08:12:05;15.73;;;14.10;;
33858;SDS011;20156;47.486;12.074;2022-11-15T08:14:30;18.80;;;14.53;;
33858;SDS011;20156;47.486;12.074;2022-11-15T08:16:56;27.37;;;22.47;;
33858;SDS011;20156;47.486;12.074;2022-11-15T08:19:21;18.60;;;15.63;;
33858;SDS011;20156;47.486;12.074;2022-11-15T08:21:46;21.10;;;18.47;;
33858;SDS011;20156;47.486;12.074;2022-11-15T08:24:12;21.30;;;17.43;;
33858;SDS011;20156;47.486;12.074;2022-11-15T08:26:37;14.90;;;12.73;;
33858;SDS011;20156;47.486;12.074;2022-11-15T08:29:03;19.13;;;16.07;;
33858;SDS011;20156;47.486;12.074;2022-11-15T08:31:28;18.70;;;16.70;;
33858;SDS011;20156;47.486;12.074;2022-11-15T08:33:54;17.17;;;14.27;;
33858;SDS011;20156;47.486;12.074;2022-11-15T08:36:19;14.83;;;12.13;;
33858;SDS011;20156;47.486;12.074;2022-11-15T08:38:45;13.03;;;11.20;;
33858;SDS011;20156;47.486;12.074;2022-11-15T08:41:14;15.40;;;12.60;;
33858;SDS011;20156;47.486;12.074;2022-11-15T08:43:49;12.33;;;9.63;;
33858;SDS011;20156;47.486;12.074;2022-11-15T08:46:15;10.50;;;9.13;;
33858;SDS011;20156;47.486;12.074;2022-11-15T08:48:40;13.90;;;10.00;;
33858;SDS011;20156;47.486;12.074;2022-11-15T08:51:06;9.90;;;8.60;;
33858;SDS011;20156;47.486;12.074;2022-11-15T08:53:31;10.00;;;8.27;;
33858;SDS011;20156;47.486;12.074;2022-11-15T08:55:57;10.40;;;8.83;;
33858;SDS011;20156;47.486;12.074;2022-11-15T08:58:22;9.53;;;7.07;;
33858;SDS011;20156;47.486;12.074;2022-11-15T09:00:47;11.03;;;6.47;;
33858;SDS011;20156;47.486;12.074;2022-11-15T09:03:13;8.10;;;6.37;;
33858;SDS011;20156;47.486;12.074;2022-11-15T09:05:39;9.00;;;6.30;;
33858;SDS011;20156;47.486;12.074;2022-11-15T09:08:04;11.50;;;7.27;;
33858;SDS011;20156;47.486;12.074;2022-11-15T09:10:30;9.77;;;6.93;;
33858;SDS011;20156;47.486;12.074;2022-11-15T09:12:56;10.03;;;7.57;;
33858;SDS011;20156;47.486;12.074;2022-11-15T09:15:22;9.43;;;7.17;;
33858;SDS011;20156;47.486;12.074;2022-11-15T09:17:47;9.03;;;7.67;;
33858;SDS011;20156;47.486;12.074;2022-11-15T09:20:13;7.13;;;5.30;;
33858;SDS011;20156;47.486;12.074;2022-11-15T09:22:39;7.63;;;5.23;;
33858;SDS011;20156;47.486;12.074;2022-11-15T09:25:05;6.83;;;5.57;;
33858;SDS011;20156;47.486;12.074;2022-11-15T09:27:31;7.60;;;5.53;;
33858;SDS011;20156;47.486;12.074;2022-11-15T09:29:57;8.03;;;5.57;;
33858;SDS011;20156;47.486;12.074;2022-11-15T09:32:23;7.37;;;5.67;;
33858;SDS011;20156;47.486;12.074;2022-11-15T09:34:49;6.33;;;5.20;;
33858;SDS011;20156;47.486;12.074;2022-11-15T09:37:15;5.33;;;4.03;;
33858;SDS011;20156;47.486;12.074;2022-11-15T09:39:41;5.00;;;4.07;;
33858;SDS011;20156;47.486;12.074;2022-11-15T09:50:19;6.37;;;5.77;;
33858;SDS011;20156;47.486;12.074;2022-11-15T09:53:02;4.87;;;4.30;;
33858;SDS011;20156;47.486;12.074;2022-11-15T09:55:37;4.90;;;4.30;;
33858;SDS011;20156;47.486;12.074;2022-11-15T09:58:39;3.90;;;3.50;;
33858;SDS011;20156;47.486;12.074;2022-11-15T10:01:11;4.60;;;3.77;;
33858;SDS011;20156;47.486;12.074;2022-11-15T10:03:44;3.87;;;3.47;;
33858;SDS011;20156;47.486;12.074;2022-11-15T10:06:16;3.63;;;3.33;;
33858;SDS011;20156;47.486;12.074;2022-11-15T10:11:30;3.37;;;3.07;;
33858;SDS011;20156;47.486;12.074;2022-11-15T10:13:59;4.50;;;3.60;;
33858;SDS011;20156;47.486;12.074;2022-11-15T10:19:17;2.53;;;2.33;;
33858;SDS011;20156;47.486;12.074;2022-11-15T10:22:19;2.60;;;2.40;;
33858;SDS011;20156;47.486;12.074;2022-11-15T10:24:50;4.60;;;3.20;;
33858;SDS011;20156;47.486;12.074;2022-11-15T10:27:25;2.80;;;2.50;;
33858;SDS011;20156;47.486;12.074;2022-11-15T10:29:50;3.73;;;2.63;;
33858;SDS011;20156;47.486;12.074;2022-11-15T10:32:17;3.93;;;2.67;;
33858;SDS011;20156;47.486;12.074;2022-11-15T10:34:46;3.43;;;3.00;;
33858;SDS011;20156;47.486;12.074;2022-11-15T10:37:13;3.07;;;2.77;;
33858;SDS011;20156;47.486;12.074;2022-11-15T10:39:38;3.30;;;3.00;;
33858;SDS011;20156;47.486;12.074;2022-11-15T10:42:26;3.10;;;2.43;;
33858;SDS011;20156;47.486;12.074;2022-11-15T10:44:53;2.95;;;2.45;;
33858;SDS011;20156;47.486;12.074;2022-11-15T10:47:29;3.75;;;2.80;;
33858;SDS011;20156;47.486;12.074;2022-11-15T10:50:06;3.97;;;2.60;;
33858;SDS011;20156;47.486;12.074;2022-11-15T10:52:50;4.07;;;2.40;;
33858;SDS011;20156;47.486;12.074;2022-11-15T10:57:47;5.63;;;2.95;;
33858;SDS011;20156;47.486;12.074;2022-11-15T11:03:05;3.23;;;2.90;;
33858;SDS011;20156;47.486;12.074;2022-11-15T11:06:02;2.72;;;2.50;;
33858;SDS011;20156;47.486;12.074;2022-11-15T11:08:39;4.88;;;2.58;;
33858;SDS011;20156;47.486;12.074;2022-11-15T11:11:06;4.32;;;2.42;;
33858;SDS011;20156;47.486;12.074;2022-11-15T11:13:34;3.42;;;2.35;;
33858;SDS011;20156;47.486;12.074;2022-11-15T11:16:07;2.60;;;2.40;;
33858;SDS011;20156;47.486;12.074;2022-11-15T11:24:11;2.70;;;2.30;;
33858;SDS011;20156;47.486;12.074;2022-11-15T11:48:14;2.00;;;1.80;;
33858;SDS011;20156;47.486;12.074;2022-11-15T11:50:48;2.40;;;1.90;;
33858;SDS011;20156;47.486;12.074;2022-11-15T11:56:21;2.30;;;2.08;;
33858;SDS011;20156;47.486;12.074;2022-11-15T11:58:50;1.85;;;1.75;;
33858;SDS011;20156;47.486;12.074;2022-11-15T12:01:39;1.92;;;1.83;;
33858;SDS011;20156;47.486;12.074;2022-11-15T12:07:14;1.90;;;1.80;;
33858;SDS011;20156;47.486;12.074;2022-11-15T12:12:44;2.13;;;1.98;;
33858;SDS011;20156;47.486;12.074;2022-11-15T12:15:20;2.30;;;2.10;;
33858;SDS011;20156;47.486;12.074;2022-11-15T12:17:47;2.67;;;1.92;;
33858;SDS011;20156;47.486;12.074;2022-11-15T12:20:20;2.28;;;1.70;;
33858;SDS011;20156;47.486;12.074;2022-11-15T12:25:24;1.90;;;1.80;;
33858;SDS011;20156;47.486;12.074;2022-11-15T12:28:01;2.28;;;2.00;;
33858;SDS011;20156;47.486;12.074;2022-11-15T12:30:45;1.73;;;1.63;;
33858;SDS011;20156;47.486;12.074;2022-11-15T12:38:54;3.20;;;1.90;;
33858;SDS011;20156;47.486;12.074;2022-11-15T12:41:28;1.90;;;1.73;;
33858;SDS011;20156;47.486;12.074;2022-11-15T12:43:55;1.80;;;1.70;;
33858;SDS011;20156;47.486;12.074;2022-11-15T12:48:54;2.33;;;1.73;;
33858;SDS011;20156;47.486;12.074;2022-11-15T12:52:03;1.90;;;1.80;;
33858;SDS011;20156;47.486;12.074;2022-11-15T12:56:47;2.97;;;1.90;;
33858;SDS011;20156;47.486;12.074;2022-11-15T12:59:51;2.70;;;2.05;;
33858;SDS011;20156;47.486;12.074;2022-11-15T13:08:00;5.20;;;4.55;;
33858;SDS011;20156;47.486;12.074;2022-11-15T13:13:07;5.45;;;4.95;;
33858;SDS011;20156;47.486;12.074;2022-11-15T13:15:35;2.03;;;1.83;;
33858;SDS011;20156;47.486;12.074;2022-11-15T13:21:16;3.13;;;2.30;;
33858;SDS011;20156;47.486;12.074;2022-11-15T13:24:03;1.92;;;1.70;;
33858;SDS011;20156;47.486;12.074;2022-11-15T13:26:29;2.03;;;1.83;;
33858;SDS011;20156;47.486;12.074;2022-11-15T13:28:55;2.78;;;2.00;;
33858;SDS011;20156;47.486;12.074;2022-11-15T13:34:12;1.77;;;1.67;;
33858;SDS011;20156;47.486;12.074;2022-11-15T13:36:42;2.45;;;1.40;;
33858;SDS011;20156;47.486;12.074;2022-11-15T13:39:27;2.70;;;1.75;;
33858;SDS011;20156;47.486;12.074;2022-11-15T13:41:54;2.45;;;1.92;;
33858;SDS011;20156;47.486;12.074;2022-11-15T13:44:21;2.25;;;1.83;;
33858;SDS011;20156;47.486;12.074;2022-11-15T13:46:48;4.57;;;3.63;;
33858;SDS011;20156;47.486;12.074;2022-11-15T13:49:13;4.32;;;2.35;;
33858;SDS011;20156;47.486;12.074;2022-11-15T13:51:43;5.50;;;1.80;;
33858;SDS011;20156;47.486;12.074;2022-11-15T13:56:38;2.78;;;2.05;;
33858;SDS011;20156;47.486;12.074;2022-11-15T13:59:09;2.33;;;2.00;;
33858;SDS011;20156;47.486;12.074;2022-11-15T14:01:35;2.70;;;1.98;;
33858;SDS011;20156;47.486;12.074;2022-11-15T14:04:01;4.90;;;2.00;;
33858;SDS011;20156;47.486;12.074;2022-11-15T14:06:28;3.03;;;2.15;;
33858;SDS011;20156;47.486;12.074;2022-11-15T14:09:38;2.55;;;2.00;;
33858;SDS011;20156;47.486;12.074;2022-11-15T14:11:53;3.20;;;2.20;;
33858;SDS011;20156;47.486;12.074;2022-11-15T14:14:21;3.03;;;1.80;;
33858;SDS011;20156;47.486;12.074;2022-11-15T14:16:50;1.85;;;1.75;;
33858;SDS011;20156;47.486;12.074;2022-11-15T14:27:37;1.75;;;1.65;;
33858;SDS011;20156;47.486;12.074;2022-11-15T14:30:03;1.75;;;1.60;;
33858;SDS011;20156;47.486;12.074;2022-11-15T14:32:30;3.05;;;2.10;;
33858;SDS011;20156;47.486;12.074;2022-11-15T14:35:09;12.15;;;4.82;;
33858;SDS011;20156;47.486;12.074;2022-11-15T14:37:46;3.85;;;1.98;;
33858;SDS011;20156;47.486;12.074;2022-11-15T14:40:13;3.78;;;2.55;;
33858;SDS011;20156;47.486;12.074;2022-11-15T14:42:40;2.70;;;2.30;;
33858;SDS011;20156;47.486;12.074;2022-11-15T14:45:19;2.38;;;2.17;;
33858;SDS011;20156;47.486;12.074;2022-11-15T14:47:46;2.35;;;2.10;;
33858;SDS011;20156;47.486;12.074;2022-11-15T14:50:21;2.33;;;2.13;;
33858;SDS011;20156;47.486;12.074;2022-11-15T14:52:47;2.38;;;2.10;;
33858;SDS011;20156;47.486;12.074;2022-11-15T14:55:18;3.88;;;3.10;;
33858;SDS011;20156;47.486;12.074;2022-11-15T14:57:56;7.20;;;6.50;;
33858;SDS011;20156;47.486;12.074;2022-11-15T15:00:22;8.40;;;6.78;;
33858;SDS011;20156;47.486;12.074;2022-11-15T15:02:50;18.98;;;12.93;;
33858;SDS011;20156;47.486;12.074;2022-11-15T15:08:08;9.38;;;7.10;;
33858;SDS011;20156;47.486;12.074;2022-11-15T15:10:36;11.70;;;7.50;;
33858;SDS011;20156;47.486;12.074;2022-11-15T15:13:04;27.38;;;16.27;;
33858;SDS011;20156;47.486;12.074;2022-11-15T15:15:37;20.92;;;12.05;;
33858;SDS011;20156;47.486;12.074;2022-11-15T15:18:03;13.20;;;9.13;;
33858;SDS011;20156;47.486;12.074;2022-11-15T15:20:30;14.88;;;10.35;;
33858;SDS011;20156;47.486;12.074;2022-11-15T15:22:56;12.70;;;9.40;;
33858;SDS011;20156;47.486;12.074;2022-11-15T15:25:23;12.00;;;9.73;;
33858;SDS011;20156;47.486;12.074;2022-11-15T15:28:00;8.70;;;7.60;;
33858;SDS011;20156;47.486;12.074;2022-11-15T15:30:26;15.05;;;8.90;;
33858;SDS011;20156;47.486;12.074;2022-11-15T15:32:53;17.38;;;11.27;;
33858;SDS011;20156;47.486;12.074;2022-11-15T15:35:19;11.57;;;8.00;;
33858;SDS011;20156;47.486;12.074;2022-11-15T15:37:45;9.18;;;6.82;;
33858;SDS011;20156;47.486;12.074;2022-11-15T15:40:16;9.65;;;6.38;;
33858;SDS011;20156;47.486;12.074;2022-11-15T15:42:45;14.40;;;12.98;;
33858;SDS011;20156;47.486;12.074;2022-11-15T15:45:11;15.35;;;12.90;;
33858;SDS011;20156;47.486;12.074;2022-11-15T15:47:37;13.15;;;10.73;;
33858;SDS011;20156;47.486;12.074;2022-11-15T15:50:04;11.20;;;9.47;;
33858;SDS011;20156;47.486;12.074;2022-11-15T15:52:39;13.60;;;10.87;;
33858;SDS011;20156;47.486;12.074;2022-11-15T15:55:05;16.27;;;12.80;;
33858;SDS011;20156;47.486;12.074;2022-11-15T15:57:30;35.25;;;29.17;;
33858;SDS011;20156;47.486;12.074;2022-11-15T15:59:56;28.08;;;21.15;;
33858;SDS011;20156;47.486;12.074;2022-11-15T16:02:21;23.60;;;17.67;;
33858;SDS011;20156;47.486;12.074;2022-11-15T16:04:46;18.83;;;13.43;;
33858;SDS011;20156;47.486;12.074;2022-11-15T16:07:15;19.35;;;15.85;;
33858;SDS011;20156;47.486;12.074;2022-11-15T16:09:46;18.40;;;15.00;;
33858;SDS011;20156;47.486;12.074;2022-11-15T16:12:33;99.25;;;72.28;;
33858;SDS011;20156;47.486;12.074;2022-11-15T16:14:59;93.20;;;66.77;;
33858;SDS011;20156;47.486;12.074;2022-11-15T16:17:28;14.77;;;12.17;;
33858;SDS011;20156;47.486;12.074;2022-11-15T16:19:56;51.60;;;38.13;;
33858;SDS011;20156;47.486;12.074;2022-11-15T16:22:22;24.27;;;18.87;;
33858;SDS011;20156;47.486;12.074;2022-11-15T16:24:48;37.80;;;30.27;;
33858;SDS011;20156;47.486;12.074;2022-11-15T16:27:17;33.67;;;27.47;;
33858;SDS011;20156;47.486;12.074;2022-11-15T16:29:44;31.93;;;24.43;;
33858;SDS011;20156;47.486;12.074;2022-11-15T16:32:11;26.17;;;20.97;;
33858;SDS011;20156;47.486;12.074;2022-11-15T16:34:36;22.83;;;19.17;;
33858;SDS011;20156;47.486;12.074;2022-11-15T16:37:02;13.57;;;10.97;;
33858;SDS011;20156;47.486;12.074;2022-11-15T16:39:28;33.80;;;26.37;;